Time;durP1;ratioP1;P1;durP2;ratioP2;P2;SDS_P1;SDS_P2;PMS_P1;PMS_P2;Temp;Humidity;BMP_temperature;BMP_pressure;BME280_temperature;BME280_humidity;BME280_pressure;Samples;Min_cycle;Max_cycle;Signal;HPM_P1;HPM_P2
2021/05/23 00:00:05;;;;;;;;;;;12.60;99.90;;;11.63;64.70;95312.88;10334351;28;2135;-87
2021/05/23 00:05:09;;;;;;;;;;;12.60;99.90;;;11.62;65.97;95319.38;10359065;28;2003;-88
2021/05/23 00:10:24;;;;;;;;;;;12.60;99.90;;;11.59;65.42;95322.66;10349961;28;2045;-87
2021/05/23 00:15:28;;;;;;;;;;;12.60;99.90;;;11.54;65.75;95314.66;10332779;28;1926;-86
2021/05/23 00:20:33;;;;;;;;;;;13.30;99.90;;;11.58;65.60;95331.81;10343509;28;1785;-87
2021/05/23 00:25:39;;;;;;;;;;;12.60;99.90;;;11.58;67.24;95337.22;10332022;28;2164;-88
2021/05/23 00:30:46;;;;;;;;;;;12.60;99.90;;;11.46;68.87;95351.09;10365300;28;1701;-86
2021/05/23 00:35:53;;;;;;;;;;;12.50;99.90;;;11.38;69.62;95349.81;10268635;28;2075;-87
2021/05/23 00:41:03;;;;;;;;;;;12.50;99.90;;;11.17;74.48;95353.84;10332118;28;2038;-86
2021/05/23 00:46:09;;;;;;;;;;;12.40;99.90;;;10.94;77.23;95360.84;10333736;28;1944;-87
2021/05/23 00:51:18;;;;;;;;;;;12.20;99.90;;;10.73;78.92;95376.38;10342993;28;1832;-89
2021/05/23 00:56:27;;;;;;;;;;;12.00;99.90;;;10.43;82.45;95373.97;10340618;28;1918;-88
2021/05/23 01:01:31;;;;;;;;;;;11.80;99.90;;;10.26;85.89;95380.56;10367449;28;1908;-87
2021/05/23 01:06:41;;;;;;;;;;;11.60;99.90;;;10.16;84.69;95375.22;10337698;28;2032;-88
2021/05/23 01:11:51;;;;;;;;;;;11.40;99.90;;;10.02;85.39;95390.38;10341212;28;2285;-88
2021/05/23 01:17:00;;;;;;;;;;;11.30;99.90;;;10.03;86.50;95386.59;10357381;28;2155;-87
2021/05/23 01:22:09;;;;;;;;;;;11.20;99.90;;;9.82;87.06;95387.81;10357669;28;2084;-85
2021/05/23 01:27:15;;;;;;;;;;;11.10;99.90;;;9.80;87.86;95374.69;10337633;28;1878;-86
2021/05/23 01:32:22;;;;;;;;;;;11.00;99.90;;;9.72;85.87;95370.69;10350131;28;2075;-88
2021/05/23 01:37:36;;;;;;;;;;;10.90;99.90;;;9.65;87.73;95367.50;10343855;28;2160;-86
2021/05/23 01:42:45;;;;;;;;;;;10.80;99.90;;;9.58;86.10;95367.00;10270420;28;2090;-85
2021/05/23 01:47:51;;;;;;;;;;;10.80;99.90;;;9.54;87.47;95365.94;10349971;28;2144;-83
2021/05/23 01:53:01;;;;;;;;;;;10.70;99.90;;;9.60;88.45;95359.47;10333470;28;1962;-87
2021/05/23 01:58:09;;;;;;;;;;;10.70;99.90;;;9.67;87.27;95360.00;10332178;28;2209;-85
2021/05/23 02:03:28;;;;;;;;;;;10.80;99.90;;;9.71;87.93;95366.41;10348764;28;2274;-87
2021/05/23 02:08:34;;;;;;;;;;;10.80;99.90;;;9.75;87.79;95372.03;10340558;28;2203;-87
2021/05/23 02:13:41;;;;;;;;;;;10.80;99.90;;;9.82;88.58;95369.03;10339630;28;2120;-87
2021/05/23 02:18:56;;;;;;;;;;;10.90;99.90;;;9.89;87.53;95388.31;10342736;28;2155;-88
2021/05/23 02:24:03;;;;;;;;;;;10.90;99.90;;;9.88;87.22;95379.47;10334976;28;2084;-86
2021/05/23 02:29:10;;;;;;;;;;;10.90;99.90;;;9.83;87.65;95389.41;10343089;28;2072;-86
2021/05/23 02:34:21;;;;;;;;;;;10.90;99.90;;;9.83;87.24;95410.91;10351468;28;2260;-88
2021/05/23 02:39:27;;;;;;;;;;;10.90;99.90;;;9.80;86.77;95406.06;10274457;28;2142;-87
2021/05/23 02:44:30;;;;;;;;;;;10.90;99.90;;;9.75;82.44;95409.59;10355241;28;2001;-87
2021/05/23 02:49:37;;;;;;;;;;;10.80;99.90;;;9.58;82.39;95420.69;10285708;28;1999;-85
2021/05/23 02:54:43;;;;;;;;;;;10.70;99.90;;;9.56;84.42;95432.78;10346738;28;1887;-87
2021/05/23 02:59:49;;;;;;;;;;;10.70;99.90;;;9.42;79.91;95449.47;10359760;28;2262;-89
2021/05/23 03:04:54;;;;;;;;;;;10.60;99.90;;;9.07;83.40;95457.59;10358140;28;2380;-86
2021/05/23 03:09:59;;;;;;;;;;;10.30;99.90;;;8.63;83.12;95463.53;10370048;28;2071;-89
2021/05/23 03:15:10;;;;;;;;;;;10.00;99.90;;;8.27;88.20;95487.63;10361703;28;2174;-86
2021/05/23 03:20:18;;;;;;;;;;;9.60;99.90;;;8.08;90.12;95490.00;10362665;28;2373;-86
2021/05/23 03:25:31;;;;;;;;;;;10.50;99.90;;;7.98;91.27;95508.69;10285274;28;2189;-86
2021/05/23 03:30:34;;;;;;;;;;;9.20;99.90;;;7.91;92.68;95515.38;10350656;28;1863;-86
2021/05/23 03:35:37;;;;;;;;;;;10.60;99.90;;;7.84;92.65;95523.63;10279621;28;2247;-86
2021/05/23 03:40:41;;;;;;;;;;;9.60;99.90;;;7.79;94.11;95545.03;10273963;28;2177;-85
2021/05/23 03:45:51;;;;;;;;;;;10.50;99.90;;;7.67;94.12;95539.06;10351144;28;2222;-87
2021/05/23 03:50:55;;;;;;;;;;;9.40;99.90;;;7.70;96.55;95539.38;10348867;28;1955;-86
2021/05/23 03:55:58;;;;;;;;;;;9.70;99.90;;;7.74;97.77;95542.31;10352818;28;1944;-88
2021/05/23 04:01:01;;;;;;;;;;;10.20;99.90;;;7.74;97.44;95547.66;10348579;28;1561;-88
2021/05/23 04:06:04;;;;;;;;;;;9.60;99.90;;;7.81;98.36;95550.91;10351713;28;1685;-88
2021/05/23 04:11:13;;;;;;;;;;;10.70;99.90;;;7.75;98.46;95566.13;10348550;28;1909;-88
2021/05/23 04:16:25;;;;;;;;;;;9.00;99.90;;;7.76;98.87;95561.59;10360548;28;2171;-89
2021/05/23 04:21:55;;;;;;;;;;;8.80;99.90;;;7.77;99.13;95564.03;10292282;28;2206;-89
2021/05/23 04:27:01;;;;;;;;;;;9.90;99.90;;;7.78;99.17;95586.22;10342602;28;2139;-87
2021/05/23 04:32:05;;;;;;;;;;;9.50;99.90;;;7.71;98.57;95585.66;10274478;28;1781;-89
2021/05/23 04:37:16;;;;;;;;;;;10.10;99.90;;;7.59;98.63;95602.72;10341835;28;2116;-89
2021/05/23 04:42:22;;;;;;;;;;;8.70;99.90;;;7.49;98.97;95610.66;10348197;28;1374;-87
2021/05/23 04:47:48;;;;;;;;;;;9.20;99.90;;;7.47;98.97;95612.00;10349486;28;2132;-89
2021/05/23 04:52:53;;;;;;;;;;;10.50;99.90;;;7.41;98.56;95613.81;10348454;28;2144;-87
2021/05/23 04:57:57;;;;;;;;;;;9.20;99.90;;;7.52;99.11;95620.06;10357071;28;2595;-87
2021/05/23 05:03:01;;;;;;;;;;;8.40;99.90;;;7.52;98.35;95630.75;10356103;28;2548;-86
2021/05/23 05:08:11;;;;;;;;;;;9.80;99.90;;;7.61;99.21;95633.75;10375269;28;2297;-89
2021/05/23 05:13:20;;;;;;;;;;;9.90;99.90;;;7.58;99.12;95641.22;10346715;28;2071;-88
2021/05/23 05:18:26;;;;;;;;;;;8.60;99.90;;;7.55;98.02;95641.72;10336145;28;2331;-89
2021/05/23 05:23:37;;;;;;;;;;;9.20;99.90;;;7.55;98.13;95657.78;10341366;28;2123;-88
2021/05/23 05:28:43;;;;;;;;;;;8.50;99.90;;;7.62;97.85;95665.59;10359874;28;1508;-89
2021/05/23 05:33:54;;;;;;;;;;;8.60;99.90;;;7.67;98.23;95675.53;10387361;28;1886;-89
2021/05/23 05:39:05;;;;;;;;;;;10.40;99.90;;;7.53;96.40;95675.97;10350466;28;1756;-89
2021/05/23 05:44:13;;;;;;;;;;;8.60;99.90;;;7.67;97.89;95686.22;10339375;28;2063;-88
2021/05/23 05:49:26;;;;;;;;;;;8.60;99.90;;;7.65;95.99;95688.34;10352884;28;1828;-87
2021/05/23 05:54:34;;;;;;;;;;;10.40;99.90;;;7.66;96.51;95695.31;10346990;28;1915;-89
2021/05/23 05:59:44;;;;;;;;;;;9.10;99.90;;;7.57;96.15;95714.53;10369196;28;2056;-86
2021/05/23 06:05:15;;;;;;;;;;;8.50;99.90;;;7.56;96.16;95717.44;10276317;28;1667;-88
2021/05/23 06:10:20;;;;;;;;;;;9.50;99.90;;;7.55;96.75;95719.31;10333386;28;1555;-89
2021/05/23 06:15:25;;;;;;;;;;;10.00;99.90;;;7.63;96.90;95727.91;10343089;28;1964;-88
2021/05/23 06:20:30;;;;;;;;;;;8.90;99.90;;;7.58;95.66;95732.19;10338049;28;1292;-89
2021/05/23 06:25:35;;;;;;;;;;;9.80;99.90;;;7.64;96.50;95743.75;10353578;28;1706;-85
2021/05/23 06:30:43;;;;;;;;;;;8.80;99.90;;;7.68;96.44;95763.53;10338530;28;1947;-87
2021/05/23 06:36:00;;;;;;;;;;;10.10;99.90;;;7.71;97.18;95767.59;10340023;28;1943;-87
2021/05/23 06:41:05;;;;;;;;;;;8.60;99.90;;;7.62;96.69;95774.47;10333934;28;2065;-88
2021/05/23 06:46:09;;;;;;;;;;;9.80;99.90;;;7.60;97.81;95769.38;10327434;28;1943;-88
2021/05/23 06:51:13;;;;;;;;;;;8.50;99.90;;;7.64;97.85;95780.38;10327219;28;1387;-87
2021/05/23 06:56:21;;;;;;;;;;;9.50;99.90;;;7.53;97.66;95787.50;10339060;28;2057;-88
2021/05/23 07:01:26;;;;;;;;;;;9.10;99.90;;;7.61;97.74;95794.25;10348525;28;2038;-87
2021/05/23 07:06:43;;;;;;;;;;;8.40;99.90;;;7.68;98.00;95794.84;10261793;28;1860;-89
2021/05/23 07:11:46;;;;;;;;;;;9.50;99.90;;;7.70;97.31;95803.41;10323540;28;1981;-87
2021/05/23 07:16:53;;;;;;;;;;;10.40;99.90;;;7.68;97.97;95813.56;10338632;28;1977;-89
2021/05/23 07:21:59;;;;;;;;;;;9.30;99.90;;;7.80;97.23;95830.28;10331169;28;1421;-86
2021/05/23 07:27:03;;;;;;;;;;;8.70;99.90;;;7.83;98.47;95843.16;10335060;28;2040;-87
2021/05/23 07:32:12;;;;;;;;;;;9.30;99.90;;;7.89;98.37;95844.81;10363996;28;1661;-89
2021/05/23 07:37:21;;;;;;;;;;;8.70;99.90;;;7.74;97.88;95837.44;10329015;28;2001;-89
2021/05/23 07:42:38;;;;;;;;;;;10.40;99.90;;;7.92;97.50;95844.31;10358298;28;1977;-87
2021/05/23 07:47:51;;;;;;;;;;;8.70;99.90;;;8.17;97.20;95846.38;10326928;28;1925;-84
2021/05/23 07:52:54;;;;;;;;;;;10.70;99.90;;;8.59;96.16;95851.00;10249725;28;1766;-87
2021/05/23 07:57:58;;;;;;;;;;;9.20;99.90;;;8.84;96.56;95853.81;10319477;28;1902;-86
2021/05/23 08:03:05;;;;;;;;;;;9.50;99.90;;;9.15;92.97;95859.28;10332790;28;2206;-88
2021/05/23 08:08:11;;;;;;;;;;;10.70;99.90;;;9.62;91.30;95856.50;10332319;28;1912;-88
2021/05/23 08:13:17;;;;;;;;;;;10.20;99.90;;;9.77;90.16;95849.56;10333336;28;1956;-88
2021/05/23 08:18:28;;;;;;;;;;;10.40;99.90;;;10.23;88.15;95855.78;10260426;28;2023;-85
2021/05/23 08:23:32;;;;;;;;;;;10.70;99.90;;;10.85;84.80;95849.25;10342738;28;2129;-88
2021/05/23 08:28:41;;;;;;;;;;;11.20;99.90;;;11.70;80.86;95869.88;10343709;28;1936;-89
2021/05/23 08:39:08;;;;;;;;;;;12.30;99.90;;;11.74;76.84;95874.44;10333843;28;1676;-86
2021/05/23 08:44:23;;;;;;;;;;;12.40;99.90;;;11.85;77.59;95881.41;10344805;28;2085;-87
2021/05/23 08:49:52;;;;;;;;;;;12.40;99.90;;;11.27;76.03;95894.59;10345688;28;2135;-83
2021/05/23 08:54:58;;;;;;;;;;;12.20;99.90;;;10.24;86.15;95916.50;10327276;28;2826;-85
2021/05/23 09:00:05;;;;;;;;;;;11.60;99.90;;;9.74;90.64;95918.00;10328196;28;1488;-85
2021/05/23 09:05:12;;;;;;;;;;;11.00;99.90;;;9.34;89.94;95934.75;10271212;28;1752;-86
2021/05/23 09:10:18;;;;;;;;;;;10.60;99.90;;;8.35;88.73;95949.63;10270531;28;1544;-84
2021/05/23 09:15:21;;;;;;;;;;;9.90;99.90;;;7.63;92.46;95966.81;10359842;28;1895;-83
2021/05/23 09:20:24;;;;;;;;;;;8.90;99.90;;;7.09;94.13;95968.56;10343656;28;1554;-86
2021/05/23 09:25:30;;;;;;;;;;;8.40;99.90;;;7.16;97.83;95963.84;10344479;28;1528;-87
2021/05/23 09:30:37;;;;;;;;;;;8.00;99.90;;;7.34;97.85;95960.88;10347052;28;1647;-87
2021/05/23 09:35:43;;;;;;;;;;;9.70;99.90;;;7.80;94.83;95950.69;10347315;28;1891;-86
2021/05/23 09:40:46;;;;;;;;;;;8.40;99.90;;;7.88;95.43;95949.44;10273538;28;1522;-87
2021/05/23 09:45:49;;;;;;;;;;;9.80;99.90;;;7.82;97.04;95948.56;10358599;28;1491;-85
2021/05/23 09:50:54;;;;;;;;;;;8.80;99.90;;;8.50;96.54;95957.81;10338858;28;1762;-86
2021/05/23 09:55:57;;;;;;;;;;;9.00;99.90;;;8.75;93.04;95956.41;10270315;28;1888;-83
2021/05/23 10:01:00;;;;;;;;;;;9.30;99.90;;;8.87;93.72;95965.88;10329923;28;1340;-86
2021/05/23 10:06:05;;;;;;;;;;;10.60;99.90;;;9.29;92.22;95974.97;10320669;28;1538;-87
2021/05/23 10:11:08;;;;;;;;;;;9.70;99.90;;;9.99;87.17;95966.41;10266786;28;1325;-84
2021/05/23 10:16:11;;;;;;;;;;;10.90;99.90;;;10.05;83.81;95966.41;10324132;28;1887;-84
2021/05/23 10:21:16;;;;;;;;;;;10.70;99.90;;;10.69;82.56;95956.03;10326359;28;1338;-84
2021/05/23 10:26:19;;;;;;;;;;;11.10;99.90;;;11.53;80.57;95959.09;10331850;28;1530;-86
2021/05/23 10:31:22;;;;;;;;;;;11.70;99.90;;;10.36;80.20;95957.34;10329078;28;1558;-84
2021/05/23 10:36:25;;;;;;;;;;;11.50;99.90;;;11.68;80.38;95950.94;10364241;28;1891;-86
2021/05/23 10:41:33;;;;;;;;;;;12.00;99.90;;;12.37;76.75;95952.75;10267604;28;1632;-84
2021/05/23 10:46:58;;;;;;;;;;;13.20;99.90;;;13.81;70.85;95958.44;10265009;28;1503;-85
2021/05/23 10:52:04;;;;;;;;;;;15.10;99.90;;;14.64;68.55;95943.50;10357556;28;1646;-86
2021/05/23 10:57:34;;;;;;;;;;;16.60;99.90;;;15.89;62.63;95923.59;10317278;28;1973;-85
2021/05/23 11:02:40;;;;;;;;;;;17.90;99.90;;;14.95;63.72;95924.84;10328583;28;1662;-83
2021/05/23 11:07:49;;;;;;;;;;;18.20;99.90;;;14.80;63.83;95925.91;10337254;28;1359;-84
2021/05/23 11:12:56;;;;;;;;;;;17.00;99.90;;;14.86;64.64;95918.50;10326709;28;1658;-83
2021/05/23 11:17:59;;;;;;;;;;;16.80;99.90;;;15.39;68.83;95912.66;10273730;28;1910;-84
2021/05/23 11:23:04;;;;;;;;;;;16.50;99.90;;;15.01;63.93;95910.09;10323945;28;1571;-84
2021/05/23 11:28:13;;;;;;;;;;;17.20;99.90;;;14.40;66.24;95915.72;10332007;28;1751;-86
2021/05/23 11:33:20;;;;;;;;;;;17.00;99.90;;;13.80;67.38;95908.16;10297896;28;1521;-86
2021/05/23 11:38:23;;;;;;;;;;;15.90;99.90;;;13.70;64.01;95903.72;10340498;28;1890;-83
2021/05/23 11:43:28;;;;;;;;;;;15.30;99.90;;;13.84;65.98;95892.19;10352366;28;1650;-86
2021/05/23 11:48:33;;;;;;;;;;;15.10;99.90;;;13.66;64.78;95888.38;10336343;28;1487;-84
2021/05/23 11:53:37;;;;;;;;;;;15.00;99.90;;;14.13;61.58;95883.94;10329994;28;1448;-86
2021/05/23 11:58:40;;;;;;;;;;;14.90;99.90;;;14.80;58.95;95881.78;10342169;28;1982;-85
2021/05/23 12:03:49;;;;;;;;;;;15.40;99.90;;;14.54;61.20;95874.13;10281137;28;1308;-86
2021/05/23 12:08:55;;;;;;;;;;;15.40;99.90;;;14.82;58.34;95869.59;10328379;28;2014;-87
2021/05/23 12:14:00;;;;;;;;;;;15.40;99.90;;;15.15;54.72;95866.81;10282980;28;1914;-86
2021/05/23 12:19:04;;;;;;;;;;;15.80;99.90;;;14.30;52.88;95885.00;10281100;28;1492;-84
2021/05/23 12:24:11;;;;;;;;;;;15.80;99.90;;;11.98;64.60;95892.66;10343206;28;2367;-85
2021/05/23 12:29:18;;;;;;;;;;;13.90;99.90;;;12.04;64.02;95896.94;10327653;28;1897;-86
2021/05/23 12:34:23;;;;;;;;;;;13.20;99.90;;;12.77;61.18;95896.88;10334892;28;2054;-83
2021/05/23 12:39:30;;;;;;;;;;;13.40;99.90;;;12.81;60.87;95895.22;10287769;28;1775;-85
2021/05/23 12:44:41;;;;;;;;;;;13.70;99.90;;;13.76;59.51;95896.34;10345463;28;1328;-86
2021/05/23 12:49:45;;;;;;;;;;;13.90;99.90;;;14.73;53.83;95878.69;10358891;28;1625;-84
2021/05/23 12:54:48;;;;;;;;;;;15.10;99.90;;;14.58;53.61;95867.03;10318569;28;2016;-84
2021/05/23 12:59:53;;;;;;;;;;;14.50;99.90;;;14.40;53.38;95886.75;10377481;28;2061;-84
2021/05/23 13:05:00;;;;;;;;;;;15.50;99.90;;;14.30;54.14;95873.38;10344783;28;2312;-86
2021/05/23 13:10:03;;;;;;;;;;;15.30;99.90;;;14.32;52.42;95882.03;10332763;28;2060;-83
2021/05/23 13:15:08;;;;;;;;;;;15.40;99.90;;;13.94;52.64;95882.06;10330267;28;1907;-86
2021/05/23 13:20:16;;;;;;;;;;;15.20;99.90;;;14.28;52.75;95872.88;10337141;28;1920;-83
2021/05/23 13:25:20;;;;;;;;;;;15.30;99.90;;;14.69;50.10;95864.94;10313128;28;1993;-83
2021/05/23 13:30:25;;;;;;;;;;;15.60;99.90;;;14.59;48.73;95860.50;10249559;28;1996;-83
2021/05/23 13:35:27;;;;;;;;;;;15.70;99.90;;;14.83;48.27;95856.88;10273369;28;1988;-84
2021/05/23 13:40:30;;;;;;;;;;;15.80;99.90;;;14.88;47.70;95856.75;10276401;28;2153;-85
2021/05/23 13:45:33;;;;;;;;;;;16.00;99.90;;;15.83;48.37;95859.75;10349550;28;1934;-83
2021/05/23 13:50:37;;;;;;;;;;;16.40;99.90;;;16.35;44.66;95852.06;10334611;28;1973;-84
2021/05/23 13:55:42;;;;;;;;;;;17.00;99.90;;;16.22;46.48;95851.00;10247902;28;2071;-87
2021/05/23 14:00:46;;;;;;;;;;;17.30;99.90;;;16.00;44.23;95849.06;10360550;28;2323;-86
2021/05/23 14:05:53;;;;;;;;;;;17.10;99.80;;;16.37;44.34;95855.28;10343618;28;1830;-86
2021/05/23 14:11:03;;;;;;;;;;;17.20;99.90;;;16.46;43.19;95851.50;10328581;28;1815;-85
2021/05/23 14:16:06;;;;;;;;;;;17.20;98.30;;;16.30;42.41;95853.00;10287679;28;2103;-87
2021/05/23 14:21:12;;;;;;;;;;;17.10;97.10;;;15.44;45.08;95855.66;10285455;28;1537;-86
2021/05/23 14:26:19;;;;;;;;;;;16.70;97.00;;;15.11;47.05;95855.78;10335325;28;1800;-86
2021/05/23 14:31:23;;;;;;;;;;;16.30;98.80;;;15.54;48.18;95863.59;10396493;28;2113;-84
2021/05/23 14:36:29;;;;;;;;;;;16.30;99.90;;;16.37;46.30;95850.66;10327268;28;2181;-84
2021/05/23 14:41:34;;;;;;;;;;;16.60;99.90;;;17.03;45.25;95853.63;10338570;28;2192;-81
2021/05/23 14:46:37;;;;;;;;;;;17.40;99.90;;;16.50;44.66;95857.13;10268148;28;2006;-85
2021/05/23 14:51:40;;;;;;;;;;;17.50;97.50;;;16.42;42.36;95852.44;10335400;28;2243;-83
2021/05/23 14:56:43;;;;;;;;;;;17.50;94.50;;;16.58;41.53;95842.81;10271485;28;2110;-85
2021/05/23 15:01:46;;;;;;;;;;;17.70;92.60;;;16.54;39.43;95841.84;10336554;28;2280;-85
2021/05/23 15:06:56;;;;;;;;;;;17.70;87.70;;;16.40;39.93;95847.31;10371352;28;1563;-87
2021/05/23 15:12:10;;;;;;;;;;;17.60;87.50;;;16.06;40.99;95842.44;10345434;28;1671;-86
2021/05/23 15:17:15;;;;;;;;;;;17.30;87.00;;;15.82;39.66;95831.06;10333610;28;2093;-84
2021/05/23 15:22:42;;;;;;;;;;;;;;;;;;;;;
2021/05/23 15:33:23;;;;;;;;;;;17.20;83.60;;;16.68;38.24;95831.69;10275114;28;1506;-86
2021/05/23 15:38:29;;;;;;;;;;;17.60;82.90;;;16.89;38.01;95829.28;10281456;28;1954;-87
2021/05/23 15:43:35;;;;;;;;;;;17.80;81.80;;;16.64;40.18;95822.56;10342124;28;1409;-83
2021/05/23 15:48:44;;;;;;;;;;;17.90;83.30;;;16.67;38.71;95807.59;10354941;28;1837;-87
2021/05/23 15:53:55;;;;;;;;;;;17.60;82.30;;;17.03;38.35;95810.16;10345595;28;1882;-87
2021/05/23 15:59:11;;;;;;;;;;;17.90;81.60;;;16.86;39.05;95810.09;10347198;28;2121;-83
2021/05/23 16:34:11;;;;;;;;;;;16.80;80.90;;;15.10;43.15;95794.63;10328452;28;2085;-86
2021/05/23 16:40:03;;;;;;;;;;;16.40;83.10;;;15.13;43.23;95798.63;10288663;28;1669;-87
2021/05/23 16:45:45;;;;;;;;;;;16.20;83.40;;;15.46;40.78;95798.47;10156347;28;2072;-83
2021/05/23 16:56:13;;;;;;;;;;;16.50;80.00;;;15.53;37.26;95799.69;10144419;28;2230;-84
2021/05/23 17:01:20;;;;;;;;;;;16.50;76.90;;;15.26;38.00;95803.22;10142564;28;1933;-84
2021/05/23 17:06:27;;;;;;;;;;;16.50;76.40;;;15.07;38.42;95803.31;10126315;28;2204;-85
2021/05/23 17:11:32;;;;;;;;;;;16.20;76.50;;;14.70;40.39;95811.66;10134657;28;2156;-84
2021/05/23 17:16:35;;;;;;;;;;;16.00;77.90;;;14.48;41.02;95818.50;10131240;28;1915;-82
2021/05/23 17:27:00;;;;;;;;;;;15.60;78.50;;;14.23;41.96;95810.78;10341503;28;2071;-84
2021/05/23 17:32:03;;;;;;;;;;;15.50;79.40;;;14.13;42.30;95819.88;10282583;28;1712;-83
2021/05/23 17:37:12;;;;;;;;;;;15.30;80.40;;;13.88;42.26;95818.38;10344408;28;1909;-86
2021/05/23 17:42:26;;;;;;;;;;;15.20;79.90;;;13.84;41.71;95817.34;10344233;28;2032;-82
2021/05/23 17:47:32;;;;;;;;;;;15.10;79.10;;;13.74;42.45;95829.09;10333743;28;2022;-81
2021/05/23 17:52:35;;;;;;;;;;;15.00;79.70;;;13.65;42.57;95819.22;10343334;28;2055;-82
2021/05/23 17:57:39;;;;;;;;;;;14.90;79.70;;;13.49;44.64;95818.66;10336874;28;2109;-83
2021/05/23 18:02:45;;;;;;;;;;;14.80;81.30;;;13.40;44.89;95818.47;10318691;28;1889;-82
2021/05/23 18:07:48;;;;;;;;;;;14.60;81.90;;;13.27;43.61;95826.50;10266036;28;2055;-82
2021/05/23 18:13:02;;;;;;;;;;;14.50;80.90;;;13.11;44.52;95826.66;10357553;28;2261;-82
2021/05/23 18:18:09;;;;;;;;;;;14.40;81.60;;;13.17;43.39;95825.50;10264393;28;1940;-82
2021/05/23 18:23:15;;;;;;;;;;;14.40;80.60;;;12.93;45.34;95825.50;10263658;28;2280;-83
2021/05/23 18:28:29;;;;;;;;;;;14.30;81.60;;;12.63;46.71;95815.03;10328996;28;2347;-82
2021/05/23 18:33:44;;;;;;;;;;;14.10;83.10;;;12.34;47.19;95829.34;10247556;28;2049;-81
2021/05/23 18:38:50;;;;;;;;;;;13.80;83.80;;;12.19;47.48;95832.13;10265335;28;2278;-82
2021/05/23 18:43:54;;;;;;;;;;;13.60;83.60;;;12.04;46.78;95835.78;10355421;28;1992;-81
2021/05/23 18:48:57;;;;;;;;;;;13.50;83.20;;;11.84;47.30;95842.09;10338971;28;1550;-81
2021/05/23 18:53:59;;;;;;;;;;;13.30;83.90;;;11.62;48.61;95838.97;10265089;28;2067;-81
2021/05/23 18:59:02;;;;;;;;;;;13.10;84.90;;;11.46;49.68;95845.53;10340381;28;1894;-83
2021/05/23 19:04:05;;;;;;;;;;;13.00;85.70;;;11.27;49.42;95854.22;10331425;28;2024;-82
2021/05/23 19:09:11;;;;;;;;;;;12.80;85.50;;;11.10;51.89;95869.88;10320939;28;2043;-83
2021/05/23 19:14:14;;;;;;;;;;;12.60;87.40;;;10.94;51.72;95871.84;10262315;28;1864;-83
2021/05/23 19:19:19;;;;;;;;;;;12.50;88.30;;;10.76;54.03;95875.91;10324814;28;1898;-82
2021/05/23 19:24:24;;;;;;;;;;;12.30;89.90;;;10.57;53.25;95877.53;10322584;28;2128;-82
2021/05/23 19:29:26;;;;;;;;;;;12.10;89.80;;;10.38;54.33;95873.81;10317042;28;2012;-82
2021/05/23 19:34:32;;;;;;;;;;;12.00;90.90;;;10.22;56.63;95887.19;10302467;28;2099;-79
2021/05/23 19:39:34;;;;;;;;;;;11.70;92.80;;;10.17;60.69;95889.06;10269535;28;2056;-81
2021/05/23 19:44:37;;;;;;;;;;;11.60;96.50;;;10.06;59.68;95890.16;10251653;28;1700;-83
2021/05/23 19:49:46;;;;;;;;;;;11.50;97.10;;;9.93;63.04;95892.28;10270981;28;2095;-83
2021/05/23 19:54:50;;;;;;;;;;;11.40;99.70;;;9.85;64.69;95908.09;10329883;28;2086;-81
2021/05/23 19:59:53;;;;;;;;;;;11.30;99.90;;;9.84;62.95;95911.84;10329564;28;1887;-82
2021/05/23 20:04:59;;;;;;;;;;;11.30;99.90;;;9.74;64.60;95897.34;10267218;28;1997;-83
2021/05/23 20:10:01;;;;;;;;;;;11.20;99.90;;;9.71;63.81;95902.41;10344133;28;1857;-82
2021/05/23 20:15:07;;;;;;;;;;;11.10;99.90;;;9.66;65.59;95892.47;10261816;28;2059;-81
2021/05/23 20:20:12;;;;;;;;;;;11.10;99.90;;;9.63;65.28;95884.97;10256402;28;1984;-82
2021/05/23 20:25:15;;;;;;;;;;;11.00;99.90;;;9.61;65.58;95897.84;10269013;28;2332;-82
2021/05/23 20:30:18;;;;;;;;;;;11.00;99.90;;;9.52;67.59;95910.16;10336869;28;2082;-81
2021/05/23 20:35:20;;;;;;;;;;;10.90;99.90;;;9.36;69.20;95905.81;10336443;28;2010;-82
2021/05/23 20:40:23;;;;;;;;;;;10.80;99.90;;;9.29;69.22;95915.94;10332146;28;1889;-82
2021/05/23 20:45:26;;;;;;;;;;;10.70;99.90;;;9.17;70.49;95916.19;10328605;28;2056;-81
2021/05/23 20:50:29;;;;;;;;;;;10.60;99.90;;;9.09;71.61;95914.78;10325290;28;2040;-81
2021/05/23 20:55:33;;;;;;;;;;;10.50;99.90;;;9.02;72.99;95916.09;10324486;28;2081;-81
2021/05/23 21:00:36;;;;;;;;;;;10.40;99.90;;;8.96;73.54;95901.84;10259866;28;1714;-81
2021/05/23 21:05:38;;;;;;;;;;;10.40;99.90;;;8.98;73.30;95910.44;10268013;28;2130;-80
2021/05/23 21:10:42;;;;;;;;;;;10.30;99.90;;;9.24;71.36;95910.59;10328436;28;2018;-81
2021/05/23 21:15:47;;;;;;;;;;;10.30;99.90;;;9.20;70.92;95911.09;10276826;28;2106;-82
2021/05/23 21:20:50;;;;;;;;;;;10.40;99.90;;;9.11;70.65;95893.91;10298054;28;1958;-81
2021/05/23 21:25:53;;;;;;;;;;;10.30;99.90;;;9.17;71.15;95892.84;10347326;28;1908;-81
2021/05/23 21:30:55;;;;;;;;;;;10.40;99.90;;;9.18;70.48;95897.13;10336093;28;2088;-80
2021/05/23 21:35:59;;;;;;;;;;;10.40;99.90;;;9.15;70.18;95889.59;10332877;28;1982;-80
2021/05/23 21:41:02;;;;;;;;;;;10.40;99.90;;;9.07;70.56;95894.66;10267498;28;2345;-83
2021/05/23 21:46:05;;;;;;;;;;;10.30;99.90;;;9.23;70.43;95895.56;10370066;28;1796;-79
2021/05/23 21:51:08;;;;;;;;;;;10.30;99.90;;;9.30;70.85;95888.88;10298569;28;2149;-83
2021/05/23 21:56:10;;;;;;;;;;;10.40;99.90;;;9.17;72.27;95897.41;10355165;28;2007;-83
2021/05/23 22:01:13;;;;;;;;;;;10.40;99.90;;;9.26;71.91;95878.94;10340280;28;1646;-84
2021/05/23 22:06:16;;;;;;;;;;;10.40;99.90;;;9.15;72.44;95889.59;10361876;28;2116;-82
2021/05/23 22:11:22;;;;;;;;;;;10.30;99.90;;;9.12;73.60;95879.41;10339505;28;2312;-81
2021/05/23 22:16:28;;;;;;;;;;;10.30;99.90;;;9.17;73.74;95886.69;10337266;28;1966;-81
2021/05/23 22:21:36;;;;;;;;;;;10.30;99.90;;;9.31;73.33;95862.84;10278788;28;2031;-83
2021/05/23 22:26:44;;;;;;;;;;;10.40;99.90;;;9.28;73.98;95882.16;10340036;28;2092;-83
2021/05/23 22:31:47;;;;;;;;;;;10.40;99.90;;;9.26;74.27;95869.00;10263152;28;1680;-82
2021/05/23 22:36:54;;;;;;;;;;;10.40;99.90;;;9.35;74.67;95864.75;10314350;28;2128;-82
2021/05/23 22:41:57;;;;;;;;;;;10.40;99.90;;;9.32;74.41;95870.63;10259366;28;2109;-85
2021/05/23 22:47:00;;;;;;;;;;;10.50;99.90;;;9.30;75.35;95861.25;10274772;28;2127;-82
2021/05/23 22:52:03;;;;;;;;;;;10.40;99.90;;;9.25;75.10;95867.41;10258307;28;2052;-83
2021/05/23 22:57:07;;;;;;;;;;;10.40;99.90;;;9.24;75.56;95873.03;10334716;28;2341;-84
2021/05/23 23:02:09;;;;;;;;;;;10.40;99.90;;;9.21;76.09;95868.97;10327915;28;2188;-82
2021/05/23 23:07:13;;;;;;;;;;;10.30;99.90;;;9.21;75.90;95877.84;10261157;28;2309;-82
2021/05/23 23:12:17;;;;;;;;;;;10.30;99.90;;;9.20;76.18;95854.75;10261352;28;2012;-81
2021/05/23 23:17:21;;;;;;;;;;;10.30;99.90;;;9.24;75.83;95840.84;10331567;28;1951;-83
2021/05/23 23:22:23;;;;;;;;;;;10.30;99.90;;;9.29;75.48;95854.25;10347781;28;2059;-86
2021/05/23 23:27:26;;;;;;;;;;;10.40;99.90;;;9.20;75.62;95837.88;10340504;28;2187;-84
2021/05/23 23:32:30;;;;;;;;;;;10.30;99.90;;;9.18;76.28;95827.41;10274708;28;2064;-85
2021/05/23 23:37:33;;;;;;;;;;;10.30;99.90;;;9.16;75.95;95826.88;10372036;28;2038;-83
2021/05/23 23:42:38;;;;;;;;;;;10.30;99.90;;;9.14;75.97;95818.25;10352033;28;2181;-83
2021/05/23 23:47:41;;;;;;;;;;;10.30;99.90;;;9.04;76.56;95820.94;10263989;28;2092;-84
2021/05/23 23:52:44;;;;;;;;;;;10.20;99.90;;;8.96;77.04;95824.09;10356209;28;1946;-85
2021/05/23 23:57:47;;;;;;;;;;;10.20;99.90;;;8.99;77.04;95812.84;10271345;28;2080;-83
